sensor_id;sensor_type;location;lat;lon;timestamp;P1;durP1;ratioP1;P2;durP2;ratioP2
60354;SDS011;46198;51.464;-0.066;2022-11-13T00:02:36;43.47;;;19.48;;
60354;SDS011;46198;51.464;-0.066;2022-11-13T00:05:22;34.83;;;17.40;;
60354;SDS011;46198;51.464;-0.066;2022-11-13T00:08:09;38.97;;;17.00;;
60354;SDS011;46198;51.464;-0.066;2022-11-13T00:10:59;37.35;;;18.17;;
60354;SDS011;46198;51.464;-0.066;2022-11-13T00:13:48;30.02;;;16.40;;
60354;SDS011;46198;51.464;-0.066;2022-11-13T00:16:34;40.10;;;18.67;;
60354;SDS011;46198;51.464;-0.066;2022-11-13T00:19:21;36.88;;;17.55;;
60354;SDS011;46198;51.464;-0.066;2022-11-13T00:22:08;34.35;;;17.58;;
60354;SDS011;46198;51.464;-0.066;2022-11-13T00:24:54;39.72;;;17.75;;
60354;SDS011;46198;51.464;-0.066;2022-11-13T00:27:41;38.75;;;16.88;;
60354;SDS011;46198;51.464;-0.066;2022-11-13T00:30:29;47.63;;;18.52;;
60354;SDS011;46198;51.464;-0.066;2022-11-13T00:33:16;40.83;;;17.58;;
60354;SDS011;46198;51.464;-0.066;2022-11-13T00:36:24;35.60;;;15.73;;
60354;SDS011;46198;51.464;-0.066;2022-11-13T00:39:11;36.60;;;17.45;;
60354;SDS011;46198;51.464;-0.066;2022-11-13T00:41:58;35.63;;;17.08;;
60354;SDS011;46198;51.464;-0.066;2022-11-13T00:44:44;36.78;;;18.10;;
60354;SDS011;46198;51.464;-0.066;2022-11-13T00:47:33;35.53;;;17.63;;
60354;SDS011;46198;51.464;-0.066;2022-11-13T00:50:19;31.58;;;16.02;;
60354;SDS011;46198;51.464;-0.066;2022-11-13T00:53:06;30.90;;;16.05;;
60354;SDS011;46198;51.464;-0.066;2022-11-13T00:55:59;35.97;;;16.00;;
60354;SDS011;46198;51.464;-0.066;2022-11-13T00:58:45;31.85;;;16.23;;
60354;SDS011;46198;51.464;-0.066;2022-11-13T01:01:32;28.33;;;14.38;;
60354;SDS011;46198;51.464;-0.066;2022-11-13T01:04:20;29.60;;;14.77;;
60354;SDS011;46198;51.464;-0.066;2022-11-13T01:07:07;33.10;;;15.70;;
60354;SDS011;46198;51.464;-0.066;2022-11-13T01:09:53;33.28;;;16.25;;
60354;SDS011;46198;51.464;-0.066;2022-11-13T01:12:40;32.70;;;18.38;;
60354;SDS011;46198;51.464;-0.066;2022-11-13T01:15:27;35.30;;;16.25;;
60354;SDS011;46198;51.464;-0.066;2022-11-13T01:18:13;36.40;;;17.55;;
60354;SDS011;46198;51.464;-0.066;2022-11-13T01:21:04;36.22;;;16.70;;
60354;SDS011;46198;51.464;-0.066;2022-11-13T01:23:54;34.25;;;16.83;;
60354;SDS011;46198;51.464;-0.066;2022-11-13T01:26:40;33.42;;;16.13;;
60354;SDS011;46198;51.464;-0.066;2022-11-13T01:29:27;33.03;;;16.80;;
60354;SDS011;46198;51.464;-0.066;2022-11-13T01:32:14;34.03;;;16.05;;
60354;SDS011;46198;51.464;-0.066;2022-11-13T01:35:03;35.88;;;16.70;;
60354;SDS011;46198;51.464;-0.066;2022-11-13T01:37:51;35.15;;;16.02;;
60354;SDS011;46198;51.464;-0.066;2022-11-13T01:40:43;34.05;;;17.27;;
60354;SDS011;46198;51.464;-0.066;2022-11-13T01:43:31;36.83;;;18.15;;
60354;SDS011;46198;51.464;-0.066;2022-11-13T01:46:24;35.05;;;17.50;;
60354;SDS011;46198;51.464;-0.066;2022-11-13T01:49:19;33.83;;;16.17;;
60354;SDS011;46198;51.464;-0.066;2022-11-13T01:52:12;32.30;;;17.02;;
60354;SDS011;46198;51.464;-0.066;2022-11-13T01:55:08;37.05;;;16.75;;
60354;SDS011;46198;51.464;-0.066;2022-11-13T01:57:57;32.05;;;15.57;;
60354;SDS011;46198;51.464;-0.066;2022-11-13T02:00:45;35.53;;;16.83;;
60354;SDS011;46198;51.464;-0.066;2022-11-13T02:03:31;32.88;;;16.52;;
60354;SDS011;46198;51.464;-0.066;2022-11-13T02:06:18;35.72;;;16.67;;
60354;SDS011;46198;51.464;-0.066;2022-11-13T02:09:05;32.60;;;16.20;;
60354;SDS011;46198;51.464;-0.066;2022-11-13T02:11:55;31.80;;;15.82;;
60354;SDS011;46198;51.464;-0.066;2022-11-13T02:14:43;31.67;;;15.60;;
60354;SDS011;46198;51.464;-0.066;2022-11-13T02:17:34;28.35;;;14.93;;
60354;SDS011;46198;51.464;-0.066;2022-11-13T02:20:27;29.52;;;14.63;;
60354;SDS011;46198;51.464;-0.066;2022-11-13T02:23:22;27.27;;;13.50;;
60354;SDS011;46198;51.464;-0.066;2022-11-13T02:26:14;27.63;;;14.38;;
60354;SDS011;46198;51.464;-0.066;2022-11-13T02:29:04;28.15;;;14.25;;
60354;SDS011;46198;51.464;-0.066;2022-11-13T02:31:50;27.02;;;14.70;;
60354;SDS011;46198;51.464;-0.066;2022-11-13T02:34:37;27.50;;;13.77;;
60354;SDS011;46198;51.464;-0.066;2022-11-13T02:37:24;32.45;;;13.77;;
60354;SDS011;46198;51.464;-0.066;2022-11-13T02:40:11;30.45;;;13.25;;
60354;SDS011;46198;51.464;-0.066;2022-11-13T02:42:59;28.38;;;13.88;;
60354;SDS011;46198;51.464;-0.066;2022-11-13T02:45:46;25.02;;;13.40;;
60354;SDS011;46198;51.464;-0.066;2022-11-13T02:48:32;30.67;;;13.98;;
60354;SDS011;46198;51.464;-0.066;2022-11-13T02:51:19;23.02;;;12.90;;
60354;SDS011;46198;51.464;-0.066;2022-11-13T02:54:06;29.15;;;12.77;;
60354;SDS011;46198;51.464;-0.066;2022-11-13T02:56:59;24.95;;;12.00;;
60354;SDS011;46198;51.464;-0.066;2022-11-13T02:59:47;25.00;;;12.30;;
60354;SDS011;46198;51.464;-0.066;2022-11-13T03:02:34;24.58;;;11.35;;
60354;SDS011;46198;51.464;-0.066;2022-11-13T03:05:20;23.50;;;11.98;;
60354;SDS011;46198;51.464;-0.066;2022-11-13T03:08:07;25.45;;;13.60;;
60354;SDS011;46198;51.464;-0.066;2022-11-13T03:10:54;25.33;;;12.07;;
60354;SDS011;46198;51.464;-0.066;2022-11-13T03:13:41;23.38;;;11.90;;
60354;SDS011;46198;51.464;-0.066;2022-11-13T03:16:29;23.65;;;11.57;;
60354;SDS011;46198;51.464;-0.066;2022-11-13T03:19:15;22.95;;;11.48;;
60354;SDS011;46198;51.464;-0.066;2022-11-13T03:22:02;21.13;;;10.85;;
60354;SDS011;46198;51.464;-0.066;2022-11-13T03:24:49;24.00;;;11.80;;
60354;SDS011;46198;51.464;-0.066;2022-11-13T03:27:36;19.40;;;11.98;;
60354;SDS011;46198;51.464;-0.066;2022-11-13T03:30:23;27.45;;;13.00;;
60354;SDS011;46198;51.464;-0.066;2022-11-13T03:33:12;28.50;;;13.32;;
60354;SDS011;46198;51.464;-0.066;2022-11-13T03:35:58;30.50;;;13.05;;
60354;SDS011;46198;51.464;-0.066;2022-11-13T03:38:45;27.40;;;13.20;;
60354;SDS011;46198;51.464;-0.066;2022-11-13T03:41:32;27.65;;;14.25;;
60354;SDS011;46198;51.464;-0.066;2022-11-13T03:44:19;27.98;;;13.68;;
60354;SDS011;46198;51.464;-0.066;2022-11-13T03:47:05;26.00;;;12.98;;
60354;SDS011;46198;51.464;-0.066;2022-11-13T03:49:53;29.00;;;13.98;;
60354;SDS011;46198;51.464;-0.066;2022-11-13T03:52:40;26.60;;;13.32;;
60354;SDS011;46198;51.464;-0.066;2022-11-13T03:55:26;25.48;;;11.90;;
60354;SDS011;46198;51.464;-0.066;2022-11-13T03:58:13;24.55;;;11.95;;
60354;SDS011;46198;51.464;-0.066;2022-11-13T04:01:00;24.25;;;13.20;;
60354;SDS011;46198;51.464;-0.066;2022-11-13T04:03:47;27.13;;;13.55;;
60354;SDS011;46198;51.464;-0.066;2022-11-13T04:06:35;27.95;;;14.07;;
60354;SDS011;46198;51.464;-0.066;2022-11-13T04:09:22;27.60;;;12.90;;
60354;SDS011;46198;51.464;-0.066;2022-11-13T04:12:12;26.27;;;13.60;;
60354;SDS011;46198;51.464;-0.066;2022-11-13T04:14:59;26.63;;;12.77;;
60354;SDS011;46198;51.464;-0.066;2022-11-13T04:17:46;27.05;;;12.57;;
60354;SDS011;46198;51.464;-0.066;2022-11-13T04:20:33;27.83;;;13.18;;
60354;SDS011;46198;51.464;-0.066;2022-11-13T04:23:21;26.80;;;12.52;;
60354;SDS011;46198;51.464;-0.066;2022-11-13T04:26:08;27.67;;;12.88;;
60354;SDS011;46198;51.464;-0.066;2022-11-13T04:28:54;27.85;;;13.50;;
60354;SDS011;46198;51.464;-0.066;2022-11-13T04:31:41;25.20;;;11.70;;
60354;SDS011;46198;51.464;-0.066;2022-11-13T04:34:28;20.17;;;11.98;;
60354;SDS011;46198;51.464;-0.066;2022-11-13T04:37:14;26.60;;;12.98;;
60354;SDS011;46198;51.464;-0.066;2022-11-13T04:40:02;31.58;;;14.20;;
60354;SDS011;46198;51.464;-0.066;2022-11-13T04:42:50;32.05;;;13.77;;
60354;SDS011;46198;51.464;-0.066;2022-11-13T04:45:36;33.97;;;14.50;;
60354;SDS011;46198;51.464;-0.066;2022-11-13T04:48:23;32.20;;;14.93;;
60354;SDS011;46198;51.464;-0.066;2022-11-13T04:51:10;35.17;;;14.77;;
60354;SDS011;46198;51.464;-0.066;2022-11-13T04:53:57;35.00;;;15.35;;
60354;SDS011;46198;51.464;-0.066;2022-11-13T04:56:45;32.13;;;13.45;;
60354;SDS011;46198;51.464;-0.066;2022-11-13T04:59:32;28.92;;;12.38;;
60354;SDS011;46198;51.464;-0.066;2022-11-13T05:02:19;30.60;;;13.40;;
60354;SDS011;46198;51.464;-0.066;2022-11-13T05:05:07;33.78;;;15.13;;
60354;SDS011;46198;51.464;-0.066;2022-11-13T05:07:54;26.67;;;12.40;;
60354;SDS011;46198;51.464;-0.066;2022-11-13T05:10:42;30.38;;;12.25;;
60354;SDS011;46198;51.464;-0.066;2022-11-13T05:13:30;26.40;;;12.35;;
60354;SDS011;46198;51.464;-0.066;2022-11-13T05:16:17;30.45;;;12.40;;
60354;SDS011;46198;51.464;-0.066;2022-11-13T05:19:04;32.08;;;13.70;;
60354;SDS011;46198;51.464;-0.066;2022-11-13T05:21:51;33.85;;;13.73;;
60354;SDS011;46198;51.464;-0.066;2022-11-13T05:24:38;28.23;;;12.00;;
60354;SDS011;46198;51.464;-0.066;2022-11-13T05:27:24;33.13;;;13.15;;
60354;SDS011;46198;51.464;-0.066;2022-11-13T05:30:12;29.95;;;13.13;;
60354;SDS011;46198;51.464;-0.066;2022-11-13T05:32:59;31.15;;;13.25;;
60354;SDS011;46198;51.464;-0.066;2022-11-13T05:35:46;42.03;;;12.73;;
60354;SDS011;46198;51.464;-0.066;2022-11-13T05:38:32;32.95;;;13.70;;
60354;SDS011;46198;51.464;-0.066;2022-11-13T05:41:20;34.05;;;15.10;;
60354;SDS011;46198;51.464;-0.066;2022-11-13T05:44:07;33.30;;;12.57;;
60354;SDS011;46198;51.464;-0.066;2022-11-13T05:46:55;40.25;;;13.93;;
60354;SDS011;46198;51.464;-0.066;2022-11-13T05:49:41;42.65;;;13.38;;
60354;SDS011;46198;51.464;-0.066;2022-11-13T05:52:28;36.78;;;13.73;;
60354;SDS011;46198;51.464;-0.066;2022-11-13T05:55:15;34.00;;;13.40;;
60354;SDS011;46198;51.464;-0.066;2022-11-13T05:58:07;27.88;;;12.98;;
60354;SDS011;46198;51.464;-0.066;2022-11-13T06:00:53;32.65;;;12.32;;
60354;SDS011;46198;51.464;-0.066;2022-11-13T06:03:50;33.13;;;13.75;;
60354;SDS011;46198;51.464;-0.066;2022-11-13T06:06:37;30.05;;;12.20;;
60354;SDS011;46198;51.464;-0.066;2022-11-13T06:09:24;35.85;;;11.68;;
60354;SDS011;46198;51.464;-0.066;2022-11-13T06:12:11;26.92;;;10.20;;
60354;SDS011;46198;51.464;-0.066;2022-11-13T06:14:57;33.58;;;11.63;;
60354;SDS011;46198;51.464;-0.066;2022-11-13T06:17:44;27.65;;;11.68;;
60354;SDS011;46198;51.464;-0.066;2022-11-13T06:20:34;37.13;;;11.77;;
60354;SDS011;46198;51.464;-0.066;2022-11-13T06:23:21;32.50;;;11.73;;
60354;SDS011;46198;51.464;-0.066;2022-11-13T06:26:08;29.50;;;10.98;;
60354;SDS011;46198;51.464;-0.066;2022-11-13T06:28:58;30.70;;;12.37;;
60354;SDS011;46198;51.464;-0.066;2022-11-13T06:31:45;28.33;;;11.65;;
60354;SDS011;46198;51.464;-0.066;2022-11-13T06:34:32;29.25;;;11.68;;
60354;SDS011;46198;51.464;-0.066;2022-11-13T06:37:19;28.80;;;11.40;;
60354;SDS011;46198;51.464;-0.066;2022-11-13T06:40:07;32.47;;;11.05;;
60354;SDS011;46198;51.464;-0.066;2022-11-13T06:42:54;33.63;;;10.93;;
60354;SDS011;46198;51.464;-0.066;2022-11-13T06:45:40;34.30;;;11.20;;
60354;SDS011;46198;51.464;-0.066;2022-11-13T06:48:27;31.73;;;11.20;;
60354;SDS011;46198;51.464;-0.066;2022-11-13T06:51:15;29.27;;;10.35;;
60354;SDS011;46198;51.464;-0.066;2022-11-13T06:54:05;24.77;;;9.02;;
60354;SDS011;46198;51.464;-0.066;2022-11-13T06:56:51;23.85;;;9.00;;
60354;SDS011;46198;51.464;-0.066;2022-11-13T06:59:38;24.08;;;9.30;;
60354;SDS011;46198;51.464;-0.066;2022-11-13T07:02:25;18.13;;;9.07;;
60354;SDS011;46198;51.464;-0.066;2022-11-13T07:05:11;22.58;;;9.85;;
60354;SDS011;46198;51.464;-0.066;2022-11-13T07:07:58;36.05;;;10.25;;
60354;SDS011;46198;51.464;-0.066;2022-11-13T07:10:52;23.10;;;9.98;;
60354;SDS011;46198;51.464;-0.066;2022-11-13T07:13:39;28.23;;;10.75;;
60354;SDS011;46198;51.464;-0.066;2022-11-13T07:16:26;26.48;;;10.02;;
60354;SDS011;46198;51.464;-0.066;2022-11-13T07:19:33;25.38;;;10.10;;
60354;SDS011;46198;51.464;-0.066;2022-11-13T07:22:20;33.20;;;11.23;;
60354;SDS011;46198;51.464;-0.066;2022-11-13T07:25:07;24.20;;;10.60;;
60354;SDS011;46198;51.464;-0.066;2022-11-13T07:27:55;26.05;;;10.05;;
60354;SDS011;46198;51.464;-0.066;2022-11-13T07:30:42;34.10;;;11.68;;
60354;SDS011;46198;51.464;-0.066;2022-11-13T07:33:28;29.30;;;9.35;;
60354;SDS011;46198;51.464;-0.066;2022-11-13T07:36:15;20.90;;;10.07;;
60354;SDS011;46198;51.464;-0.066;2022-11-13T07:39:01;26.23;;;10.23;;
60354;SDS011;46198;51.464;-0.066;2022-11-13T07:41:48;26.60;;;10.20;;
60354;SDS011;46198;51.464;-0.066;2022-11-13T07:44:36;26.02;;;10.05;;
60354;SDS011;46198;51.464;-0.066;2022-11-13T07:47:39;21.23;;;9.20;;
60354;SDS011;46198;51.464;-0.066;2022-11-13T07:50:26;25.17;;;10.18;;
60354;SDS011;46198;51.464;-0.066;2022-11-13T07:53:13;28.17;;;10.30;;
60354;SDS011;46198;51.464;-0.066;2022-11-13T07:56:01;36.58;;;10.27;;
60354;SDS011;46198;51.464;-0.066;2022-11-13T07:58:49;20.02;;;9.63;;
60354;SDS011;46198;51.464;-0.066;2022-11-13T08:01:37;19.65;;;9.75;;
60354;SDS011;46198;51.464;-0.066;2022-11-13T08:04:24;25.88;;;9.35;;
60354;SDS011;46198;51.464;-0.066;2022-11-13T08:07:10;24.13;;;9.80;;
60354;SDS011;46198;51.464;-0.066;2022-11-13T08:09:58;27.02;;;10.25;;
60354;SDS011;46198;51.464;-0.066;2022-11-13T08:12:44;25.65;;;11.00;;
60354;SDS011;46198;51.464;-0.066;2022-11-13T08:15:32;26.50;;;11.82;;
60354;SDS011;46198;51.464;-0.066;2022-11-13T08:18:20;28.02;;;9.88;;
60354;SDS011;46198;51.464;-0.066;2022-11-13T08:21:07;22.17;;;9.43;;
60354;SDS011;46198;51.464;-0.066;2022-11-13T08:23:59;27.17;;;9.93;;
60354;SDS011;46198;51.464;-0.066;2022-11-13T08:26:45;20.83;;;9.43;;
60354;SDS011;46198;51.464;-0.066;2022-11-13T08:29:32;19.97;;;8.90;;
60354;SDS011;46198;51.464;-0.066;2022-11-13T08:32:21;20.20;;;8.70;;
60354;SDS011;46198;51.464;-0.066;2022-11-13T08:35:09;16.60;;;8.50;;
60354;SDS011;46198;51.464;-0.066;2022-11-13T08:38:03;19.98;;;8.45;;
60354;SDS011;46198;51.464;-0.066;2022-11-13T08:40:51;18.48;;;7.90;;
60354;SDS011;46198;51.464;-0.066;2022-11-13T08:43:37;22.20;;;8.63;;
60354;SDS011;46198;51.464;-0.066;2022-11-13T08:46:24;22.25;;;8.38;;
60354;SDS011;46198;51.464;-0.066;2022-11-13T08:49:10;26.55;;;7.80;;
60354;SDS011;46198;51.464;-0.066;2022-11-13T08:51:58;19.02;;;8.73;;
60354;SDS011;46198;51.464;-0.066;2022-11-13T08:54:47;33.00;;;9.23;;
60354;SDS011;46198;51.464;-0.066;2022-11-13T08:57:34;19.77;;;8.40;;
60354;SDS011;46198;51.464;-0.066;2022-11-13T09:00:21;18.83;;;8.10;;
60354;SDS011;46198;51.464;-0.066;2022-11-13T09:03:08;17.27;;;7.07;;
60354;SDS011;46198;51.464;-0.066;2022-11-13T09:05:57;21.98;;;8.45;;
60354;SDS011;46198;51.464;-0.066;2022-11-13T09:08:45;26.10;;;9.27;;
60354;SDS011;46198;51.464;-0.066;2022-11-13T09:11:31;27.70;;;9.13;;
60354;SDS011;46198;51.464;-0.066;2022-11-13T09:14:18;20.13;;;9.50;;
60354;SDS011;46198;51.464;-0.066;2022-11-13T09:17:09;19.27;;;7.47;;
60354;SDS011;46198;51.464;-0.066;2022-11-13T09:19:55;19.48;;;8.18;;
60354;SDS011;46198;51.464;-0.066;2022-11-13T09:22:48;17.20;;;7.70;;
60354;SDS011;46198;51.464;-0.066;2022-11-13T09:25:42;18.40;;;7.00;;
60354;SDS011;46198;51.464;-0.066;2022-11-13T09:28:29;10.27;;;5.82;;
60354;SDS011;46198;51.464;-0.066;2022-11-13T09:31:16;17.05;;;6.88;;
60354;SDS011;46198;51.464;-0.066;2022-11-13T09:34:02;14.85;;;6.25;;
60354;SDS011;46198;51.464;-0.066;2022-11-13T09:36:49;13.17;;;6.30;;
60354;SDS011;46198;51.464;-0.066;2022-11-13T09:39:36;12.60;;;6.20;;
60354;SDS011;46198;51.464;-0.066;2022-11-13T09:42:25;15.80;;;6.73;;
60354;SDS011;46198;51.464;-0.066;2022-11-13T09:45:14;16.37;;;7.10;;
60354;SDS011;46198;51.464;-0.066;2022-11-13T09:48:05;13.88;;;6.70;;
60354;SDS011;46198;51.464;-0.066;2022-11-13T09:51:04;14.80;;;7.37;;
60354;SDS011;46198;51.464;-0.066;2022-11-13T09:53:53;13.93;;;7.28;;
60354;SDS011;46198;51.464;-0.066;2022-11-13T09:56:41;18.98;;;7.85;;
60354;SDS011;46198;51.464;-0.066;2022-11-13T09:59:35;19.43;;;7.17;;
60354;SDS011;46198;51.464;-0.066;2022-11-13T10:02:29;17.38;;;8.20;;
60354;SDS011;46198;51.464;-0.066;2022-11-13T10:05:28;16.98;;;7.70;;
60354;SDS011;46198;51.464;-0.066;2022-11-13T10:08:23;12.13;;;6.57;;
60354;SDS011;46198;51.464;-0.066;2022-11-13T10:11:14;13.45;;;6.78;;
60354;SDS011;46198;51.464;-0.066;2022-11-13T10:14:15;12.33;;;6.97;;
60354;SDS011;46198;51.464;-0.066;2022-11-13T10:17:07;12.50;;;7.18;;
60354;SDS011;46198;51.464;-0.066;2022-11-13T10:20:00;15.73;;;7.53;;
60354;SDS011;46198;51.464;-0.066;2022-11-13T10:22:49;17.27;;;9.65;;
60354;SDS011;46198;51.464;-0.066;2022-11-13T10:25:37;14.18;;;9.20;;
60354;SDS011;46198;51.464;-0.066;2022-11-13T10:28:26;16.90;;;8.90;;
60354;SDS011;46198;51.464;-0.066;2022-11-13T10:31:40;16.98;;;9.13;;
60354;SDS011;46198;51.464;-0.066;2022-11-13T10:34:32;15.00;;;8.35;;
60354;SDS011;46198;51.464;-0.066;2022-11-13T10:37:21;19.52;;;9.45;;
60354;SDS011;46198;51.464;-0.066;2022-11-13T10:40:22;15.67;;;8.07;;
60354;SDS011;46198;51.464;-0.066;2022-11-13T10:43:12;16.63;;;8.10;;
60354;SDS011;46198;51.464;-0.066;2022-11-13T10:46:00;13.63;;;8.13;;
60354;SDS011;46198;51.464;-0.066;2022-11-13T10:48:48;14.27;;;7.45;;
60354;SDS011;46198;51.464;-0.066;2022-11-13T10:51:37;11.25;;;6.70;;
60354;SDS011;46198;51.464;-0.066;2022-11-13T10:54:24;10.77;;;6.65;;
60354;SDS011;46198;51.464;-0.066;2022-11-13T10:57:19;13.27;;;8.25;;
60354;SDS011;46198;51.464;-0.066;2022-11-13T11:00:20;15.18;;;8.50;;
60354;SDS011;46198;51.464;-0.066;2022-11-13T11:03:12;12.30;;;8.10;;
60354;SDS011;46198;51.464;-0.066;2022-11-13T11:08:48;13.57;;;8.07;;
60354;SDS011;46198;51.464;-0.066;2022-11-13T11:11:35;14.00;;;9.15;;
60354;SDS011;46198;51.464;-0.066;2022-11-13T11:14:40;11.85;;;8.43;;
60354;SDS011;46198;51.464;-0.066;2022-11-13T11:17:32;12.88;;;8.18;;
60354;SDS011;46198;51.464;-0.066;2022-11-13T11:20:24;17.33;;;10.93;;
60354;SDS011;46198;51.464;-0.066;2022-11-13T11:23:24;14.75;;;9.05;;
60354;SDS011;46198;51.464;-0.066;2022-11-13T11:26:20;14.85;;;8.75;;
60354;SDS011;46198;51.464;-0.066;2022-11-13T11:29:13;14.20;;;8.73;;
60354;SDS011;46198;51.464;-0.066;2022-11-13T11:32:06;15.98;;;9.73;;
60354;SDS011;46198;51.464;-0.066;2022-11-13T11:34:59;14.60;;;8.98;;
60354;SDS011;46198;51.464;-0.066;2022-11-13T11:37:53;17.00;;;9.50;;
60354;SDS011;46198;51.464;-0.066;2022-11-13T11:40:45;16.65;;;10.10;;
60354;SDS011;46198;51.464;-0.066;2022-11-13T11:43:38;18.08;;;10.55;;
60354;SDS011;46198;51.464;-0.066;2022-11-13T11:46:28;19.63;;;10.73;;
60354;SDS011;46198;51.464;-0.066;2022-11-13T11:49:15;20.42;;;11.90;;
60354;SDS011;46198;51.464;-0.066;2022-11-13T11:52:04;21.00;;;11.85;;
60354;SDS011;46198;51.464;-0.066;2022-11-13T11:55:06;17.88;;;11.10;;
60354;SDS011;46198;51.464;-0.066;2022-11-13T11:58:12;20.85;;;11.32;;
60354;SDS011;46198;51.464;-0.066;2022-11-13T12:01:09;20.55;;;11.52;;
60354;SDS011;46198;51.464;-0.066;2022-11-13T12:04:09;19.40;;;11.32;;
60354;SDS011;46198;51.464;-0.066;2022-11-13T12:07:14;23.80;;;12.60;;
60354;SDS011;46198;51.464;-0.066;2022-11-13T12:10:13;22.15;;;12.43;;
60354;SDS011;46198;51.464;-0.066;2022-11-13T12:13:18;23.42;;;13.05;;
60354;SDS011;46198;51.464;-0.066;2022-11-13T12:16:14;19.88;;;12.02;;
60354;SDS011;46198;51.464;-0.066;2022-11-13T12:19:11;19.23;;;12.23;;
60354;SDS011;46198;51.464;-0.066;2022-11-13T12:22:09;20.27;;;13.10;;
60354;SDS011;46198;51.464;-0.066;2022-11-13T12:25:08;25.85;;;16.25;;
60354;SDS011;46198;51.464;-0.066;2022-11-13T12:28:05;24.85;;;14.27;;
60354;SDS011;46198;51.464;-0.066;2022-11-13T12:31:01;22.65;;;13.70;;
60354;SDS011;46198;51.464;-0.066;2022-11-13T12:34:00;21.77;;;14.07;;
60354;SDS011;46198;51.464;-0.066;2022-11-13T12:36:57;23.13;;;13.02;;
60354;SDS011;46198;51.464;-0.066;2022-11-13T12:39:56;20.50;;;13.10;;
60354;SDS011;46198;51.464;-0.066;2022-11-13T12:42:46;19.98;;;12.38;;
60354;SDS011;46198;51.464;-0.066;2022-11-13T12:45:49;21.52;;;12.38;;
60354;SDS011;46198;51.464;-0.066;2022-11-13T12:48:39;19.65;;;11.80;;
60354;SDS011;46198;51.464;-0.066;2022-11-13T12:51:38;18.25;;;10.90;;
60354;SDS011;46198;51.464;-0.066;2022-11-13T12:54:29;17.50;;;11.55;;
60354;SDS011;46198;51.464;-0.066;2022-11-13T12:57:18;18.67;;;11.23;;
60354;SDS011;46198;51.464;-0.066;2022-11-13T13:00:21;18.60;;;10.50;;
60354;SDS011;46198;51.464;-0.066;2022-11-13T13:03:16;15.98;;;10.80;;
60354;SDS011;46198;51.464;-0.066;2022-11-13T13:06:16;15.88;;;10.27;;
60354;SDS011;46198;51.464;-0.066;2022-11-13T13:09:19;17.67;;;11.20;;
60354;SDS011;46198;51.464;-0.066;2022-11-13T13:12:18;16.45;;;11.20;;
60354;SDS011;46198;51.464;-0.066;2022-11-13T13:15:26;20.13;;;11.50;;
60354;SDS011;46198;51.464;-0.066;2022-11-13T13:18:23;18.95;;;11.02;;
60354;SDS011;46198;51.464;-0.066;2022-11-13T13:21:13;16.35;;;10.70;;
60354;SDS011;46198;51.464;-0.066;2022-11-13T13:24:05;17.95;;;11.18;;
60354;SDS011;46198;51.464;-0.066;2022-11-13T13:26:54;21.35;;;12.13;;
60354;SDS011;46198;51.464;-0.066;2022-11-13T13:29:41;20.75;;;12.63;;
60354;SDS011;46198;51.464;-0.066;2022-11-13T13:32:30;16.52;;;10.95;;
60354;SDS011;46198;51.464;-0.066;2022-11-13T13:35:22;18.80;;;11.48;;
60354;SDS011;46198;51.464;-0.066;2022-11-13T13:38:17;21.20;;;12.35;;
60354;SDS011;46198;51.464;-0.066;2022-11-13T13:41:14;21.25;;;12.07;;
60354;SDS011;46198;51.464;-0.066;2022-11-13T13:44:12;20.80;;;12.40;;
60354;SDS011;46198;51.464;-0.066;2022-11-13T13:47:10;20.45;;;11.80;;
60354;SDS011;46198;51.464;-0.066;2022-11-13T13:50:04;19.80;;;11.68;;
60354;SDS011;46198;51.464;-0.066;2022-11-13T13:52:53;19.40;;;12.38;;
60354;SDS011;46198;51.464;-0.066;2022-11-13T13:55:43;21.17;;;12.38;;
60354;SDS011;46198;51.464;-0.066;2022-11-13T13:58:33;20.92;;;12.38;;
60354;SDS011;46198;51.464;-0.066;2022-11-13T14:01:27;22.98;;;12.60;;
60354;SDS011;46198;51.464;-0.066;2022-11-13T14:04:16;20.35;;;12.68;;
60354;SDS011;46198;51.464;-0.066;2022-11-13T14:07:16;20.93;;;12.63;;
60354;SDS011;46198;51.464;-0.066;2022-11-13T14:10:06;22.67;;;13.80;;
60354;SDS011;46198;51.464;-0.066;2022-11-13T14:12:59;22.70;;;13.98;;
60354;SDS011;46198;51.464;-0.066;2022-11-13T14:15:58;21.65;;;13.80;;
60354;SDS011;46198;51.464;-0.066;2022-11-13T14:18:47;21.90;;;14.10;;
60354;SDS011;46198;51.464;-0.066;2022-11-13T14:21:34;21.33;;;13.05;;
60354;SDS011;46198;51.464;-0.066;2022-11-13T14:24:21;23.35;;;13.98;;
60354;SDS011;46198;51.464;-0.066;2022-11-13T14:27:12;21.80;;;13.93;;
60354;SDS011;46198;51.464;-0.066;2022-11-13T14:30:02;24.60;;;14.35;;
60354;SDS011;46198;51.464;-0.066;2022-11-13T14:32:53;24.42;;;14.05;;
60354;SDS011;46198;51.464;-0.066;2022-11-13T14:35:48;21.52;;;14.50;;
60354;SDS011;46198;51.464;-0.066;2022-11-13T14:38:39;24.45;;;15.18;;
60354;SDS011;46198;51.464;-0.066;2022-11-13T14:41:36;24.23;;;14.30;;
60354;SDS011;46198;51.464;-0.066;2022-11-13T14:44:26;24.17;;;13.98;;
60354;SDS011;46198;51.464;-0.066;2022-11-13T14:47:20;25.13;;;15.45;;
60354;SDS011;46198;51.464;-0.066;2022-11-13T14:50:18;26.48;;;15.18;;
60354;SDS011;46198;51.464;-0.066;2022-11-13T14:56:08;29.55;;;17.15;;
60354;SDS011;46198;51.464;-0.066;2022-11-13T14:59:05;28.13;;;16.83;;
60354;SDS011;46198;51.464;-0.066;2022-11-13T15:01:53;33.42;;;17.88;;
60354;SDS011;46198;51.464;-0.066;2022-11-13T15:04:43;36.72;;;19.85;;
60354;SDS011;46198;51.464;-0.066;2022-11-13T15:07:33;32.17;;;17.55;;
60354;SDS011;46198;51.464;-0.066;2022-11-13T15:10:23;30.25;;;17.65;;
60354;SDS011;46198;51.464;-0.066;2022-11-13T15:13:14;32.22;;;17.77;;
60354;SDS011;46198;51.464;-0.066;2022-11-13T15:16:03;31.60;;;17.20;;
60354;SDS011;46198;51.464;-0.066;2022-11-13T15:18:57;35.58;;;18.13;;
60354;SDS011;46198;51.464;-0.066;2022-11-13T15:21:47;34.83;;;19.45;;
60354;SDS011;46198;51.464;-0.066;2022-11-13T15:24:53;37.38;;;17.77;;
60354;SDS011;46198;51.464;-0.066;2022-11-13T15:27:40;33.58;;;17.40;;
60354;SDS011;46198;51.464;-0.066;2022-11-13T15:30:29;39.08;;;20.30;;
60354;SDS011;46198;51.464;-0.066;2022-11-13T15:33:22;37.28;;;18.75;;
60354;SDS011;46198;51.464;-0.066;2022-11-13T15:36:09;38.10;;;19.40;;
60354;SDS011;46198;51.464;-0.066;2022-11-13T15:38:57;41.25;;;18.60;;
60354;SDS011;46198;51.464;-0.066;2022-11-13T15:41:50;42.13;;;19.40;;
60354;SDS011;46198;51.464;-0.066;2022-11-13T15:44:37;41.17;;;20.75;;
60354;SDS011;46198;51.464;-0.066;2022-11-13T15:47:26;43.40;;;20.42;;
60354;SDS011;46198;51.464;-0.066;2022-11-13T15:50:14;39.22;;;20.50;;
60354;SDS011;46198;51.464;-0.066;2022-11-13T15:53:01;41.85;;;21.45;;
60354;SDS011;46198;51.464;-0.066;2022-11-13T15:55:49;39.20;;;19.98;;
60354;SDS011;46198;51.464;-0.066;2022-11-13T15:58:36;41.03;;;19.73;;
60354;SDS011;46198;51.464;-0.066;2022-11-13T16:01:23;41.90;;;20.27;;
60354;SDS011;46198;51.464;-0.066;2022-11-13T16:04:11;38.75;;;20.92;;
60354;SDS011;46198;51.464;-0.066;2022-11-13T16:07:01;39.08;;;21.10;;
60354;SDS011;46198;51.464;-0.066;2022-11-13T16:09:48;38.92;;;20.05;;
60354;SDS011;46198;51.464;-0.066;2022-11-13T16:12:34;43.42;;;22.42;;
60354;SDS011;46198;51.464;-0.066;2022-11-13T16:15:21;44.13;;;21.50;;
60354;SDS011;46198;51.464;-0.066;2022-11-13T16:18:10;45.97;;;23.63;;
60354;SDS011;46198;51.464;-0.066;2022-11-13T16:21:12;51.63;;;22.77;;
60354;SDS011;46198;51.464;-0.066;2022-11-13T16:23:59;57.67;;;24.27;;
60354;SDS011;46198;51.464;-0.066;2022-11-13T16:26:47;49.97;;;23.77;;
60354;SDS011;46198;51.464;-0.066;2022-11-13T16:29:36;50.33;;;22.55;;